createdAt,value
2016-09-11T00:00:13.072Z,0.00
2016-09-11T00:01:13.439Z,0.00
2016-09-11T00:02:13.963Z,0.00
2016-09-11T00:03:14.536Z,0.00
2016-09-11T00:04:15.153Z,0.00
2016-09-11T00:05:15.613Z,0.00
2016-09-11T00:06:16.010Z,0.00
2016-09-11T00:07:16.525Z,0.00
2016-09-11T00:08:17.059Z,0.00
2016-09-11T00:09:17.553Z,0.00
2016-09-11T00:10:18.076Z,0.00
2016-09-11T00:11:18.614Z,0.00
2016-09-11T00:12:19.262Z,0.00
2016-09-11T00:13:19.634Z,0.00
2016-09-11T00:14:20.148Z,0.00
2016-09-11T00:15:20.669Z,0.00
2016-09-11T00:16:21.178Z,0.00
2016-09-11T00:17:21.691Z,0.00
2016-09-11T00:18:22.233Z,0.00
2016-09-11T00:19:22.753Z,0.00
2016-09-11T00:20:23.226Z,0.00
2016-09-11T00:21:23.740Z,0.00
2016-09-11T00:22:24.258Z,0.00
2016-09-11T00:23:24.772Z,0.00
2016-09-11T00:24:25.327Z,0.00
2016-09-11T00:25:25.950Z,0.00
2016-09-11T00:26:26.319Z,0.00
2016-09-11T00:27:26.836Z,0.00
2016-09-11T00:28:27.388Z,0.00
2016-09-11T00:29:28.013Z,0.00
2016-09-11T00:30:28.380Z,0.00
2016-09-11T00:31:28.900Z,0.00
2016-09-11T00:32:29.562Z,0.00
2016-09-11T00:33:29.951Z,0.00
2016-09-11T00:34:30.450Z,0.00
2016-09-11T00:35:30.958Z,0.00
2016-09-11T00:36:31.616Z,0.00
2016-09-11T00:37:31.984Z,0.00
2016-09-11T00:38:32.493Z,0.00
2016-09-11T00:39:33.044Z,0.00
2016-09-11T00:40:33.520Z,0.00
2016-09-11T00:41:34.036Z,0.00
2016-09-11T00:42:34.554Z,0.00
2016-09-11T00:43:35.226Z,0.00
2016-09-11T00:44:35.583Z,0.00
2016-09-11T00:45:36.112Z,0.00
2016-09-11T00:46:36.621Z,0.00
2016-09-11T00:47:37.150Z,0.00
2016-09-11T00:48:37.804Z,0.00
2016-09-11T00:49:38.321Z,0.00
2016-09-11T00:50:38.851Z,0.00
2016-09-11T00:51:39.204Z,0.00
2016-09-11T00:52:39.719Z,0.00
2016-09-11T00:53:40.237Z,0.00
2016-09-11T00:54:40.896Z,0.00
2016-09-11T00:55:41.263Z,0.00
2016-09-11T00:56:41.770Z,0.00
2016-09-11T00:57:42.490Z,0.00
2016-09-11T00:58:42.945Z,0.00
2016-09-11T00:59:43.364Z,0.00
2016-09-11T01:00:43.831Z,0.00
2016-09-11T01:01:44.350Z,0.00
2016-09-11T01:02:45.025Z,0.00
2016-09-11T01:03:45.381Z,0.00
2016-09-11T01:04:46.055Z,0.00
2016-09-11T01:05:46.406Z,0.00
2016-09-11T01:06:46.918Z,0.00
2016-09-11T01:07:47.575Z,0.00
2016-09-11T01:08:47.947Z,0.00
2016-09-11T01:09:48.458Z,0.00
2016-09-11T01:10:49.124Z,0.00
2016-09-11T01:11:49.492Z,0.00
2016-09-11T01:12:50.024Z,0.00
2016-09-11T01:13:50.573Z,0.00
2016-09-11T01:14:51.030Z,0.00
2016-09-11T01:15:51.711Z,0.00
2016-09-11T01:16:52.062Z,0.00
2016-09-11T01:17:52.575Z,0.00
2016-09-11T01:18:53.092Z,0.00
2016-09-11T01:19:53.609Z,0.00
2016-09-11T01:20:54.118Z,0.00
2016-09-11T01:21:54.634Z,0.00
2016-09-11T01:22:55.152Z,0.00
2016-09-11T01:23:55.668Z,0.00
2016-09-11T01:24:56.192Z,0.00
2016-09-11T01:25:56.724Z,0.00
2016-09-11T01:26:57.246Z,0.00
2016-09-11T01:27:57.743Z,0.00
2016-09-11T01:28:58.421Z,0.00
2016-09-11T01:29:59.071Z,0.00
2016-09-11T01:30:59.286Z,0.00
2016-09-11T01:31:59.812Z,0.00
2016-09-11T01:33:00.322Z,0.00
2016-09-11T01:34:00.978Z,0.00
2016-09-11T01:35:01.347Z,0.00
2016-09-11T01:36:01.855Z,0.00
2016-09-11T01:37:02.370Z,0.00
2016-09-11T01:38:02.893Z,0.00
2016-09-11T01:39:03.402Z,0.00
2016-09-11T01:40:03.945Z,0.00
2016-09-11T01:41:04.453Z,0.00
2016-09-11T01:42:04.949Z,0.00
2016-09-11T01:43:05.460Z,0.00
2016-09-11T01:44:06.124Z,0.00
2016-09-11T01:45:06.833Z,0.00
2016-09-11T01:46:07.010Z,0.00
2016-09-11T01:47:07.521Z,0.00
2016-09-11T01:48:08.032Z,0.00
2016-09-11T01:49:08.655Z,0.00
2016-09-11T01:50:09.183Z,0.00
2016-09-11T01:51:09.576Z,0.00
2016-09-11T01:52:10.251Z,0.00
2016-09-11T01:53:10.920Z,0.00
2016-09-11T01:54:11.128Z,0.00
2016-09-11T01:55:11.639Z,0.00
2016-09-11T01:56:12.157Z,0.00
2016-09-11T01:57:12.735Z,0.00
2016-09-11T01:58:13.196Z,0.00
2016-09-11T01:59:13.860Z,0.00
2016-09-11T02:00:15.275Z,0.00
2016-09-11T02:01:16.232Z,0.00
2016-09-11T02:02:15.267Z,0.00
2016-09-11T02:03:15.761Z,0.00
2016-09-11T02:04:16.295Z,0.00
2016-09-11T02:05:16.945Z,0.00
2016-09-11T02:06:17.310Z,0.00
2016-09-11T02:07:17.823Z,0.00
2016-09-11T02:08:18.339Z,0.00
2016-09-11T02:09:19.290Z,0.00
2016-09-11T02:10:19.514Z,0.00
2016-09-11T02:11:19.879Z,0.00
2016-09-11T02:12:20.391Z,0.00
2016-09-11T02:13:20.901Z,0.00
2016-09-11T02:14:21.425Z,0.00
2016-09-11T02:15:22.075Z,0.00
2016-09-11T02:16:22.442Z,0.00
2016-09-11T02:17:22.955Z,0.00
2016-09-11T02:18:23.618Z,0.00
2016-09-11T02:19:23.983Z,0.00
2016-09-11T02:20:24.513Z,0.00
2016-09-11T02:21:25.012Z,0.00
2016-09-11T02:22:25.524Z,0.00
2016-09-11T02:23:26.039Z,0.00
2016-09-11T02:24:26.580Z,0.00
2016-09-11T02:25:27.072Z,0.00
2016-09-11T02:26:27.742Z,0.00
2016-09-11T02:27:28.251Z,0.00
2016-09-11T02:28:28.622Z,0.00
2016-09-11T02:29:29.286Z,0.00
2016-09-11T02:30:29.797Z,0.00
2016-09-11T02:31:30.320Z,0.00
2016-09-11T02:32:30.677Z,0.00
2016-09-11T02:33:31.194Z,0.00
2016-09-11T02:34:31.707Z,0.00
2016-09-11T02:35:32.380Z,0.00
2016-09-11T02:36:32.744Z,0.00
2016-09-11T02:37:33.270Z,0.00
2016-09-11T02:38:33.957Z,0.00
2016-09-11T02:39:34.452Z,0.00
2016-09-11T02:40:34.998Z,0.00
2016-09-11T02:41:35.325Z,0.00
2016-09-11T02:42:35.837Z,0.00
2016-09-11T02:43:36.355Z,0.00
2016-09-11T02:44:36.910Z,0.00
2016-09-11T02:45:37.387Z,0.00
2016-09-11T02:46:38.050Z,0.00
2016-09-11T02:47:38.579Z,0.00
2016-09-11T02:48:38.934Z,0.00
2016-09-11T02:49:39.594Z,0.00
2016-09-11T02:50:40.003Z,0.00
2016-09-11T02:51:40.467Z,0.00
2016-09-11T02:52:40.988Z,0.00
2016-09-11T02:53:41.499Z,0.00
2016-09-11T02:54:42.014Z,0.00
2016-09-11T02:55:49.617Z,0.00
2016-09-11T02:56:43.043Z,0.00
2016-09-11T02:57:43.875Z,0.00
2016-09-11T02:58:44.167Z,0.00
2016-09-11T02:59:44.744Z,0.00
2016-09-11T03:00:45.249Z,0.00
2016-09-11T03:01:45.616Z,0.00
2016-09-11T03:02:46.280Z,0.00
2016-09-11T03:03:46.641Z,0.00
2016-09-11T03:04:47.164Z,0.00
2016-09-11T03:05:47.826Z,0.00
2016-09-11T03:06:48.335Z,0.00
2016-09-11T03:07:48.707Z,0.00
2016-09-11T03:08:49.213Z,0.00
2016-09-11T03:09:49.727Z,0.00
2016-09-11T03:10:50.548Z,0.00
2016-09-11T03:11:50.758Z,0.00
2016-09-11T03:12:51.285Z,0.00
2016-09-11T03:13:51.796Z,0.00
2016-09-11T03:14:52.320Z,0.00
2016-09-11T03:15:52.824Z,0.00
2016-09-11T03:16:53.337Z,0.00
2016-09-11T03:17:54.015Z,0.00
2016-09-11T03:18:54.375Z,0.00
2016-09-11T03:19:55.031Z,0.00
2016-09-11T03:20:55.405Z,0.00
2016-09-11T03:21:55.923Z,0.00
2016-09-11T03:22:56.419Z,0.00
2016-09-11T03:23:57.084Z,0.00
2016-09-11T03:24:57.508Z,0.00
2016-09-11T03:25:57.960Z,0.00
2016-09-11T03:26:58.627Z,0.00
2016-09-11T03:27:58.997Z,0.00
2016-09-11T03:28:59.680Z,0.00
2016-09-11T03:30:00.179Z,0.00
2016-09-11T03:31:00.559Z,0.00
2016-09-11T03:32:01.198Z,0.00
2016-09-11T03:33:01.564Z,0.00
2016-09-11T03:34:02.085Z,0.00
2016-09-11T03:35:02.602Z,0.00
2016-09-11T03:36:03.108Z,0.00
2016-09-11T03:37:03.630Z,0.00
2016-09-11T03:38:05.632Z,0.00
2016-09-11T03:39:04.645Z,0.00
2016-09-11T03:40:05.164Z,0.00
2016-09-11T03:41:05.677Z,0.00
2016-09-11T03:42:06.201Z,0.00
2016-09-11T03:43:06.734Z,0.00
2016-09-11T03:44:07.253Z,0.00
2016-09-11T03:45:07.740Z,0.00
2016-09-11T03:46:08.408Z,0.00
2016-09-11T03:47:08.775Z,0.00
2016-09-11T03:48:09.279Z,0.00
2016-09-11T03:49:09.803Z,0.00
2016-09-11T03:50:10.316Z,0.00
2016-09-11T03:51:10.835Z,0.00
2016-09-11T03:52:11.527Z,0.00
2016-09-11T03:53:11.889Z,0.00
2016-09-11T03:54:12.384Z,0.00
2016-09-11T03:55:12.890Z,0.00
2016-09-11T03:56:13.401Z,0.00
2016-09-11T03:57:13.928Z,0.00
2016-09-11T03:58:14.429Z,0.00
2016-09-11T03:59:14.941Z,0.00
2016-09-11T04:00:16.060Z,0.00
2016-09-11T04:01:16.001Z,0.00
2016-09-11T04:02:16.492Z,0.00
2016-09-11T04:03:17.007Z,0.00
2016-09-11T04:04:17.530Z,0.00
2016-09-11T04:05:18.334Z,0.00
2016-09-11T04:06:18.550Z,0.00
2016-09-11T04:07:19.066Z,0.00
2016-09-11T04:08:19.874Z,0.00
2016-09-11T04:09:20.100Z,0.00
2016-09-11T04:10:20.610Z,0.00
2016-09-11T04:11:21.123Z,0.00
2016-09-11T04:12:21.636Z,0.00
2016-09-11T04:13:22.155Z,0.00
2016-09-11T04:14:22.664Z,0.00
2016-09-11T04:15:23.179Z,0.00
2016-09-11T04:16:23.696Z,0.00
2016-09-11T04:17:24.208Z,0.00
2016-09-11T04:18:24.866Z,0.00
2016-09-11T04:19:25.227Z,0.00
2016-09-11T04:20:25.751Z,0.00
2016-09-11T04:21:26.407Z,0.00
2016-09-11T04:22:26.772Z,0.00
2016-09-11T04:23:27.296Z,0.00
2016-09-11T04:24:27.807Z,0.00
2016-09-11T04:25:28.474Z,0.00
2016-09-11T04:26:28.844Z,0.00
2016-09-11T04:27:29.361Z,0.00
2016-09-11T04:28:29.879Z,0.00
2016-09-11T04:29:30.395Z,0.00
2016-09-11T04:30:30.912Z,0.00
2016-09-11T04:31:31.571Z,0.00
2016-09-11T04:32:31.935Z,0.00
2016-09-11T04:33:32.452Z,0.00
2016-09-11T04:34:32.962Z,0.00
2016-09-11T04:35:33.477Z,0.00
2016-09-11T04:36:33.994Z,0.00
2016-09-11T04:37:34.516Z,0.00
2016-09-11T04:38:35.021Z,0.00
2016-09-11T04:39:35.547Z,0.00
2016-09-11T04:40:36.100Z,0.00
2016-09-11T04:41:36.568Z,0.00
2016-09-11T04:42:37.081Z,0.00
2016-09-11T04:43:37.591Z,0.00
2016-09-11T04:44:38.107Z,0.00
2016-09-11T04:45:38.643Z,0.00
2016-09-11T04:46:39.138Z,0.00
2016-09-11T04:47:39.652Z,0.00
2016-09-11T04:48:40.170Z,0.00
2016-09-11T04:49:40.684Z,0.00
2016-09-11T04:50:41.198Z,0.00
2016-09-11T04:51:41.728Z,0.00
2016-09-11T04:52:42.223Z,0.00
2016-09-11T04:53:42.739Z,0.00
2016-09-11T04:54:43.400Z,0.00
2016-09-11T04:55:43.923Z,0.00
2016-09-11T04:56:44.430Z,0.00
2016-09-11T04:57:44.795Z,0.00
2016-09-11T04:58:45.341Z,0.00
2016-09-11T04:59:45.826Z,0.00
2016-09-11T05:00:46.484Z,0.00
2016-09-11T05:01:46.853Z,0.00
2016-09-11T05:02:47.368Z,0.00
2016-09-11T05:03:47.893Z,0.00
2016-09-11T05:04:48.404Z,0.00
2016-09-11T05:05:48.922Z,1.00
2016-09-11T05:06:49.434Z,1.00
2016-09-11T05:07:49.948Z,1.00
2016-09-11T05:08:50.463Z,1.00
2016-09-11T05:09:51.126Z,1.00
2016-09-11T05:10:51.520Z,2.00
2016-09-11T05:11:52.004Z,2.00
2016-09-11T05:12:52.516Z,2.00
2016-09-11T05:13:53.177Z,2.00
2016-09-11T05:14:53.548Z,2.00
2016-09-11T05:15:54.062Z,2.00
2016-09-11T05:16:54.569Z,2.00
2016-09-11T05:17:55.240Z,2.00
2016-09-11T05:18:55.590Z,3.00
2016-09-11T05:19:56.105Z,3.00
2016-09-11T05:20:56.632Z,3.00
2016-09-11T05:21:57.140Z,3.00
2016-09-11T05:22:57.648Z,3.00
2016-09-11T05:23:58.182Z,3.00
2016-09-11T05:24:58.677Z,4.00
2016-09-11T05:25:59.230Z,4.00
2016-09-11T05:26:59.711Z,4.00
2016-09-11T05:28:00.218Z,4.00
2016-09-11T05:29:00.735Z,4.00
2016-09-11T05:30:01.254Z,4.00
2016-09-11T05:31:01.774Z,5.00
2016-09-11T05:32:02.431Z,5.00
2016-09-11T05:33:02.792Z,5.00
2016-09-11T05:34:03.309Z,5.00
2016-09-11T05:35:03.966Z,5.00
2016-09-11T05:36:04.340Z,5.00
2016-09-11T05:37:04.851Z,6.00
2016-09-11T05:38:05.394Z,6.00
2016-09-11T05:39:06.034Z,6.00
2016-09-11T05:40:06.552Z,6.00
2016-09-11T05:41:07.069Z,6.00
2016-09-11T05:42:07.437Z,7.00
2016-09-11T05:43:07.955Z,7.00
2016-09-11T05:44:08.472Z,7.00
2016-09-11T05:45:09.281Z,8.00
2016-09-11T05:46:09.645Z,9.00
2016-09-11T05:47:10.168Z,9.00
2016-09-11T05:48:10.538Z,9.00
2016-09-11T05:49:11.063Z,10.00
2016-09-11T05:50:11.558Z,10.00
2016-09-11T05:51:12.071Z,9.00
2016-09-11T05:52:12.589Z,9.00
2016-09-11T05:53:13.098Z,10.00
2016-09-11T05:54:13.615Z,10.00
2016-09-11T05:55:14.285Z,10.00
2016-09-11T05:56:14.648Z,10.00
2016-09-11T05:57:15.163Z,11.00
2016-09-11T05:58:15.684Z,11.00
2016-09-11T05:59:16.186Z,11.00
2016-09-11T06:00:16.712Z,11.00
2016-09-11T06:01:17.363Z,12.00
2016-09-11T06:02:17.732Z,13.00
2016-09-11T06:03:18.245Z,14.00
2016-09-11T06:04:18.754Z,14.00
2016-09-11T06:05:19.271Z,17.00
2016-09-11T06:06:19.788Z,18.00
2016-09-11T06:07:20.303Z,18.00
2016-09-11T06:08:20.812Z,18.00
2016-09-11T06:09:21.334Z,17.00
2016-09-11T06:10:21.852Z,19.00
2016-09-11T06:11:22.967Z,17.00
2016-09-11T06:12:22.885Z,17.00
2016-09-11T06:13:23.549Z,20.00
2016-09-11T06:14:23.919Z,21.00
2016-09-11T06:15:24.592Z,19.00
2016-09-11T06:16:24.948Z,22.00
2016-09-11T06:17:25.560Z,23.00
2016-09-11T06:18:25.986Z,23.00
2016-09-11T06:19:26.499Z,23.00
2016-09-11T06:20:27.055Z,23.00
2016-09-11T06:21:27.678Z,24.00
2016-09-11T06:22:28.042Z,24.00
2016-09-11T06:23:28.567Z,26.00
2016-09-11T06:24:29.080Z,26.00
2016-09-11T06:25:29.595Z,27.00
2016-09-11T06:26:30.106Z,27.00
2016-09-11T06:27:30.802Z,27.00
2016-09-11T06:28:31.148Z,28.00
2016-09-11T06:29:31.803Z,28.00
2016-09-11T06:30:32.171Z,28.00
2016-09-11T06:31:32.693Z,29.00
2016-09-11T06:32:33.197Z,29.00
2016-09-11T06:33:33.740Z,30.00
2016-09-11T06:34:34.223Z,31.00
2016-09-11T06:35:34.738Z,31.00
2016-09-11T06:36:35.256Z,31.00
2016-09-11T06:37:35.919Z,32.00
2016-09-11T06:38:36.292Z,32.00
2016-09-11T06:39:36.953Z,33.00
2016-09-11T06:40:37.373Z,33.00
2016-09-11T06:41:37.852Z,33.00
2016-09-11T06:42:38.339Z,34.00
2016-09-11T06:43:38.861Z,34.00
2016-09-11T06:44:39.372Z,34.00
2016-09-11T06:45:39.889Z,35.00
2016-09-11T06:46:40.407Z,35.00
2016-09-11T06:47:40.918Z,36.00
2016-09-11T06:48:41.442Z,36.00
2016-09-11T06:49:42.102Z,37.00
2016-09-11T06:50:42.624Z,37.00
2016-09-11T06:51:42.986Z,38.00
2016-09-11T06:52:43.512Z,38.00
2016-09-11T06:53:44.170Z,39.00
2016-09-11T06:54:44.836Z,40.00
2016-09-11T06:55:45.204Z,40.00
2016-09-11T06:56:45.745Z,41.00
2016-09-11T06:57:46.081Z,41.00
2016-09-11T06:58:46.590Z,42.00
2016-09-11T06:59:47.168Z,42.00
2016-09-11T07:00:47.658Z,43.00
2016-09-11T07:01:48.135Z,44.00
2016-09-11T07:02:48.650Z,44.00
2016-09-11T07:03:49.473Z,45.00
2016-09-11T07:04:49.687Z,45.00
2016-09-11T07:05:50.373Z,46.00
2016-09-11T07:06:50.720Z,46.00
2016-09-11T07:07:51.221Z,47.00
2016-09-11T07:08:51.740Z,47.00
2016-09-11T07:09:52.258Z,48.00
2016-09-11T07:10:52.796Z,49.00
2016-09-11T07:11:53.282Z,49.00
2016-09-11T07:12:54.069Z,49.00
2016-09-11T07:13:54.310Z,50.00
2016-09-11T07:14:54.826Z,51.00
2016-09-11T07:15:55.343Z,51.00
2016-09-11T07:16:55.853Z,52.00
2016-09-11T07:17:56.372Z,52.00
2016-09-11T07:18:56.885Z,53.00
2016-09-11T07:19:57.394Z,53.00
2016-09-11T07:20:57.943Z,54.00
2016-09-11T07:21:58.423Z,54.00
2016-09-11T07:23:00.595Z,55.00
2016-09-11T07:23:59.453Z,56.00
2016-09-11T07:24:59.966Z,56.00
2016-09-11T07:26:00.501Z,57.00
2016-09-11T07:27:01.184Z,57.00
2016-09-11T07:28:01.681Z,58.00
2016-09-11T07:29:02.077Z,58.00
2016-09-11T07:30:03.628Z,59.00
2016-09-11T07:31:03.990Z,59.00
2016-09-11T07:32:03.589Z,60.00
2016-09-11T07:33:04.108Z,60.00
2016-09-11T07:34:05.096Z,61.00
2016-09-11T07:35:05.139Z,61.00
2016-09-11T07:36:05.646Z,62.00
2016-09-11T07:37:06.488Z,62.00
2016-09-11T07:38:08.503Z,62.00
2016-09-11T07:39:07.375Z,63.00
2016-09-11T07:40:08.010Z,63.00
2016-09-11T07:41:08.258Z,64.00
2016-09-11T07:42:08.734Z,64.00
2016-09-11T07:43:09.445Z,64.00
2016-09-11T07:44:09.765Z,65.00
2016-09-11T07:45:11.474Z,65.00
2016-09-11T07:46:10.818Z,66.00
2016-09-11T07:47:11.319Z,66.00
2016-09-11T07:48:11.831Z,67.00
2016-09-11T07:49:12.346Z,67.00
2016-09-11T07:50:13.219Z,67.00
2016-09-11T07:51:13.383Z,68.00
2016-09-11T07:52:13.884Z,68.00
2016-09-11T07:53:14.397Z,69.00
2016-09-11T07:54:14.911Z,69.00
2016-09-11T07:55:15.434Z,70.00
2016-09-11T07:56:16.240Z,70.00
2016-09-11T07:57:16.471Z,71.00
2016-09-11T07:58:16.977Z,71.00
2016-09-11T07:59:17.488Z,71.00
2016-09-11T08:00:18.150Z,72.00
2016-09-11T08:01:18.522Z,73.00
2016-09-11T08:02:19.059Z,73.00
2016-09-11T08:03:19.696Z,74.00
2016-09-11T08:04:20.224Z,75.00
2016-09-11T08:05:20.879Z,75.00
2016-09-11T08:06:21.101Z,76.00
2016-09-11T08:07:21.644Z,77.00
2016-09-11T08:08:22.135Z,77.00
2016-09-11T08:09:22.649Z,77.00
2016-09-11T08:10:23.210Z,78.00
2016-09-11T08:11:23.706Z,78.00
2016-09-11T08:12:24.211Z,79.00
2016-09-11T08:13:25.074Z,80.00
2016-09-11T08:14:25.224Z,80.00
2016-09-11T08:15:25.769Z,80.00
2016-09-11T08:16:26.286Z,80.00
2016-09-11T08:17:26.777Z,81.00
2016-09-11T08:18:27.288Z,81.00
2016-09-11T08:19:27.830Z,82.00
2016-09-11T08:20:28.317Z,82.00
2016-09-11T08:21:28.870Z,83.00
2016-09-11T08:22:29.363Z,83.00
2016-09-11T08:23:29.865Z,84.00
2016-09-11T08:24:30.383Z,84.00
2016-09-11T08:25:30.907Z,84.00
2016-09-11T08:26:31.403Z,86.00
2016-09-11T08:27:31.920Z,86.00
2016-09-11T08:28:32.432Z,87.00
2016-09-11T08:29:34.004Z,88.00
2016-09-11T08:30:33.469Z,88.00
2016-09-11T08:31:34.121Z,89.00
2016-09-11T08:32:34.486Z,90.00
2016-09-11T08:33:35.007Z,90.00
2016-09-11T08:34:35.516Z,91.00
2016-09-11T08:35:36.037Z,92.00
2016-09-11T08:36:36.699Z,87.00
2016-09-11T08:37:37.075Z,82.00
2016-09-11T08:38:37.579Z,82.00
2016-09-11T08:39:38.092Z,79.00
2016-09-11T08:40:38.614Z,83.00
2016-09-11T08:41:39.150Z,74.00
2016-09-11T08:42:39.657Z,73.00
2016-09-11T08:43:40.163Z,71.00
2016-09-11T08:44:40.677Z,84.00
2016-09-11T08:45:41.194Z,87.00
2016-09-11T08:46:41.854Z,89.00
2016-09-11T08:47:42.437Z,92.00
2016-09-11T08:48:42.737Z,92.00
2016-09-11T08:49:43.251Z,91.00
2016-09-11T08:50:43.766Z,91.00
2016-09-11T08:51:44.298Z,93.00
2016-09-11T08:52:44.954Z,94.00
2016-09-11T08:53:45.317Z,94.00
2016-09-11T08:54:45.821Z,96.00
2016-09-11T08:55:46.493Z,96.00
2016-09-11T08:56:46.854Z,94.00
2016-09-11T08:57:47.363Z,97.00
2016-09-11T08:58:47.883Z,99.00
2016-09-11T08:59:48.428Z,99.00
2016-09-11T09:00:48.913Z,99.00
2016-09-11T09:01:49.442Z,99.00
2016-09-11T09:02:49.975Z,99.00
2016-09-11T09:03:50.455Z,99.00
2016-09-11T09:04:50.967Z,99.00
2016-09-11T09:05:51.479Z,99.00
2016-09-11T09:06:52.143Z,99.00
2016-09-11T09:07:52.655Z,99.00
2016-09-11T09:08:53.022Z,99.00
2016-09-11T09:09:53.541Z,99.00
2016-09-11T09:10:54.074Z,99.00
2016-09-11T09:11:54.597Z,99.00
2016-09-11T09:12:55.241Z,99.00
2016-09-11T09:13:55.594Z,99.00
2016-09-11T09:14:56.113Z,99.00
2016-09-11T09:15:56.639Z,99.00
2016-09-11T09:16:57.169Z,99.00
2016-09-11T09:17:57.830Z,99.00
2016-09-11T09:18:59.843Z,99.00
2016-09-11T09:19:58.711Z,99.00
2016-09-11T09:20:59.215Z,99.00
2016-09-11T09:21:59.755Z,91.00
2016-09-11T09:23:01.289Z,93.00
2016-09-11T09:24:00.922Z,99.00
2016-09-11T09:25:01.289Z,99.00
2016-09-11T09:26:01.862Z,99.00
2016-09-11T09:27:02.323Z,99.00
2016-09-11T09:28:02.812Z,99.00
2016-09-11T09:29:03.324Z,99.00
2016-09-11T09:30:03.905Z,99.00
2016-09-11T09:31:04.388Z,99.00
2016-09-11T09:32:04.893Z,99.00
2016-09-11T09:33:05.382Z,99.00
2016-09-11T09:34:06.046Z,99.00
2016-09-11T09:35:06.573Z,99.00
2016-09-11T09:36:06.921Z,99.00
2016-09-11T09:37:07.748Z,99.00
2016-09-11T09:38:07.953Z,99.00
2016-09-11T09:39:08.867Z,99.00
2016-09-11T09:40:09.131Z,99.00
2016-09-11T09:41:09.499Z,99.00
2016-09-11T09:42:10.155Z,99.00
2016-09-11T09:43:10.546Z,99.00
2016-09-11T09:44:11.186Z,99.00
2016-09-11T09:45:11.549Z,81.00
2016-09-11T09:46:12.071Z,74.00
2016-09-11T09:47:12.587Z,76.00
2016-09-11T09:48:14.919Z,77.00
2016-09-11T09:49:13.633Z,70.00
2016-09-11T09:50:14.126Z,64.00
2016-09-11T09:51:14.774Z,67.00
2016-09-11T09:52:15.350Z,68.00
2016-09-11T09:53:15.684Z,70.00
2016-09-11T09:54:16.202Z,71.00
2016-09-11T09:55:16.709Z,77.00
2016-09-11T09:56:17.372Z,83.00
2016-09-11T09:57:17.885Z,88.00
2016-09-11T09:58:18.245Z,93.00
2016-09-11T09:59:18.757Z,93.00
2016-09-11T10:00:20.069Z,96.00
2016-09-11T10:01:19.785Z,96.00
2016-09-11T10:02:20.312Z,96.00
2016-09-11T10:03:20.810Z,99.00
2016-09-11T10:04:21.354Z,99.00
2016-09-11T10:05:21.840Z,99.00
2016-09-11T10:06:22.357Z,99.00
2016-09-11T10:07:23.011Z,98.00
2016-09-11T10:08:23.529Z,96.00
2016-09-11T10:09:23.910Z,92.00
2016-09-11T10:10:24.418Z,94.00
2016-09-11T10:11:25.069Z,95.00
2016-09-11T10:12:25.433Z,95.00
2016-09-11T10:13:26.098Z,96.00
2016-09-11T10:14:26.466Z,96.00
2016-09-11T10:15:26.978Z,99.00
2016-09-11T10:16:27.489Z,99.00
2016-09-11T10:17:28.002Z,99.00
2016-09-11T10:18:28.678Z,99.00
2016-09-11T10:19:29.030Z,99.00
2016-09-11T10:20:29.546Z,99.00
2016-09-11T10:21:30.057Z,99.00
2016-09-11T10:22:30.601Z,99.00
2016-09-11T10:23:31.085Z,87.00
2016-09-11T10:24:31.605Z,69.00
2016-09-11T10:25:32.116Z,62.00
2016-09-11T10:26:32.630Z,86.00
2016-09-11T10:27:33.156Z,87.00
2016-09-11T10:28:33.808Z,46.00
2016-09-11T10:29:34.180Z,63.00
2016-09-11T10:30:35.000Z,86.00
2016-09-11T10:31:35.212Z,86.00
2016-09-11T10:32:35.729Z,86.00
2016-09-11T10:33:36.242Z,85.00
2016-09-11T10:34:36.756Z,99.00
2016-09-11T10:35:37.268Z,99.00
2016-09-11T10:36:37.787Z,98.00
2016-09-11T10:37:38.299Z,98.00
2016-09-11T10:38:38.813Z,98.00
2016-09-11T10:39:39.322Z,89.00
2016-09-11T10:40:39.864Z,95.00
2016-09-11T10:41:40.354Z,95.00
2016-09-11T10:42:40.870Z,91.00
2016-09-11T10:43:41.377Z,91.00
2016-09-11T10:44:41.892Z,89.00
2016-09-11T10:45:42.558Z,88.00
2016-09-11T10:46:42.931Z,93.00
2016-09-11T10:47:43.435Z,99.00
2016-09-11T10:48:43.966Z,99.00
2016-09-11T10:49:44.620Z,99.00
2016-09-11T10:50:45.133Z,99.00
2016-09-11T10:51:45.494Z,99.00
2016-09-11T10:52:46.044Z,99.00
2016-09-11T10:53:46.519Z,99.00
2016-09-11T10:54:47.028Z,99.00
2016-09-11T10:55:47.546Z,99.00
2016-09-11T10:56:48.208Z,99.00
2016-09-11T10:57:48.570Z,99.00
2016-09-11T10:58:49.089Z,99.00
2016-09-11T10:59:49.902Z,91.00
2016-09-11T11:00:50.118Z,64.00
2016-09-11T11:01:50.628Z,67.00
2016-09-11T11:02:51.150Z,47.00
2016-09-11T11:03:51.806Z,61.00
2016-09-11T11:04:52.195Z,88.00
2016-09-11T11:05:52.687Z,87.00
2016-09-11T11:06:53.205Z,72.00
2016-09-11T11:07:54.177Z,49.00
2016-09-11T11:08:54.391Z,42.00
2016-09-11T11:09:54.752Z,50.00
2016-09-11T11:10:55.419Z,69.00
2016-09-11T11:11:55.806Z,69.00
2016-09-11T11:12:56.318Z,61.00
2016-09-11T11:13:56.909Z,78.00
2016-09-11T11:14:57.329Z,90.00
2016-09-11T11:15:57.845Z,85.00
2016-09-11T11:16:58.362Z,96.00
2016-09-11T11:17:58.882Z,99.00
2016-09-11T11:18:59.545Z,99.00
2016-09-11T11:19:59.902Z,99.00
2016-09-11T11:21:00.725Z,99.00
2016-09-11T11:22:00.936Z,99.00
2016-09-11T11:23:01.459Z,99.00
2016-09-11T11:24:02.165Z,99.00
2016-09-11T11:25:05.523Z,99.00
2016-09-11T11:26:02.988Z,99.00
2016-09-11T11:27:03.626Z,99.00
2016-09-11T11:28:04.018Z,99.00
2016-09-11T11:29:04.537Z,99.00
2016-09-11T11:30:05.042Z,99.00
2016-09-11T11:31:05.578Z,99.00
2016-09-11T11:32:06.222Z,99.00
2016-09-11T11:33:06.754Z,95.00
2016-09-11T11:34:07.107Z,88.00
2016-09-11T11:35:07.621Z,86.00
2016-09-11T11:36:08.149Z,96.00
2016-09-11T11:37:08.657Z,95.00
2016-09-11T11:38:09.163Z,96.00
2016-09-11T11:39:09.726Z,96.00
2016-09-11T11:40:11.247Z,96.00
2016-09-11T11:41:10.713Z,96.00
2016-09-11T11:42:11.223Z,93.00
2016-09-11T11:43:13.407Z,93.00
2016-09-11T11:44:12.258Z,92.00
2016-09-11T11:45:12.777Z,93.00
2016-09-11T11:46:13.289Z,98.00
2016-09-11T11:47:13.955Z,99.00
2016-09-11T11:48:14.474Z,98.00
2016-09-11T11:50:15.670Z,90.00
2016-09-11T11:51:15.870Z,89.00
2016-09-11T11:52:16.381Z,86.00
2016-09-11T11:53:16.894Z,83.00
2016-09-11T11:54:17.557Z,85.00
2016-09-11T11:55:17.920Z,88.00
2016-09-11T11:56:18.493Z,91.00
2016-09-11T11:57:18.983Z,92.00
2016-09-11T11:58:19.476Z,91.00
2016-09-11T11:59:19.989Z,92.00
2016-09-11T12:00:21.253Z,97.00
2016-09-11T12:01:21.032Z,99.00
2016-09-11T12:02:21.548Z,99.00
2016-09-11T12:03:22.050Z,99.00
2016-09-11T12:04:22.575Z,99.00
2016-09-11T12:05:23.239Z,99.00
2016-09-11T12:06:23.595Z,99.00
2016-09-11T12:07:24.111Z,99.00
2016-09-11T12:08:24.625Z,99.00
2016-09-11T12:09:25.139Z,99.00
2016-09-11T12:10:25.662Z,99.00
2016-09-11T12:11:26.357Z,99.00
2016-09-11T12:12:26.692Z,99.00
2016-09-11T12:13:27.806Z,99.00
2016-09-11T12:14:27.711Z,99.00
2016-09-11T12:15:28.237Z,99.00
2016-09-11T12:16:28.741Z,99.00
2016-09-11T12:17:29.261Z,99.00
2016-09-11T12:18:29.794Z,99.00
2016-09-11T12:19:30.301Z,99.00
2016-09-11T12:20:30.838Z,99.00
2016-09-11T12:21:31.338Z,99.00
2016-09-11T12:22:31.999Z,99.00
2016-09-11T12:23:32.390Z,99.00
2016-09-11T12:24:32.883Z,99.00
2016-09-11T12:25:33.401Z,99.00
2016-09-11T12:26:33.912Z,99.00
2016-09-11T12:27:34.581Z,99.00
2016-09-11T12:28:35.109Z,99.00
2016-09-11T12:29:35.466Z,99.00
2016-09-11T12:30:35.974Z,94.00
2016-09-11T12:31:36.491Z,93.00
2016-09-11T12:32:37.004Z,96.00
2016-09-11T12:33:37.534Z,96.00
2016-09-11T12:34:38.035Z,95.00
2016-09-11T12:35:38.554Z,87.00
2016-09-11T12:36:39.209Z,82.00
2016-09-11T12:37:39.726Z,78.00
2016-09-11T12:38:40.259Z,75.00
2016-09-11T12:39:40.623Z,75.00
2016-09-11T12:40:41.129Z,71.00
2016-09-11T12:41:41.640Z,65.00
2016-09-11T12:42:42.149Z,58.00
2016-09-11T12:43:42.936Z,65.00
2016-09-11T12:44:43.178Z,66.00
2016-09-11T12:45:43.707Z,72.00
2016-09-11T12:46:44.227Z,81.00
2016-09-11T12:47:44.720Z,88.00
2016-09-11T12:48:45.459Z,88.00
2016-09-11T12:49:45.905Z,80.00
2016-09-11T12:50:46.268Z,71.00
2016-09-11T12:51:46.776Z,82.00
2016-09-11T12:52:47.326Z,86.00
2016-09-11T12:53:48.115Z,86.00
2016-09-11T12:54:48.639Z,89.00
2016-09-11T12:55:48.870Z,90.00
2016-09-11T12:56:49.366Z,93.00
2016-09-11T12:57:49.883Z,94.00
2016-09-11T12:58:50.397Z,92.00
2016-09-11T12:59:50.916Z,88.00
2016-09-11T13:00:51.456Z,84.00
2016-09-11T13:01:52.097Z,84.00
2016-09-11T13:02:52.618Z,86.00
2016-09-11T13:03:52.977Z,89.00
2016-09-11T13:04:53.482Z,89.00
2016-09-11T13:05:54.147Z,86.00
2016-09-11T13:06:54.663Z,81.00
2016-09-11T13:07:55.033Z,79.00
2016-09-11T13:08:55.539Z,77.00
2016-09-11T13:09:56.054Z,77.00
2016-09-11T13:10:56.724Z,77.00